createdAt,value
2024-02-20T00:05:44.524Z,99411.34
2024-02-20T00:12:23.474Z,99396.72
2024-02-20T00:15:43.479Z,99400.16
2024-02-20T00:23:11.821Z,99399.41
2024-02-20T00:26:15.527Z,99414.16
2024-02-20T00:29:20.613Z,99411.72
2024-02-20T00:32:37.026Z,99405.69
2024-02-20T00:35:44.337Z,99395.19
2024-02-20T00:38:45.884Z,99391.84
2024-02-20T00:41:47.958Z,99405.75
2024-02-20T00:44:49.495Z,99400.59
2024-02-20T00:47:50.991Z,99399.63
2024-02-20T00:50:52.909Z,99406.50
2024-02-20T00:53:57.544Z,99402.19
2024-02-20T00:56:59.012Z,99406.44
2024-02-20T01:00:00.629Z,99409.88
2024-02-20T01:03:02.215Z,99404.81
2024-02-20T01:06:03.997Z,99403.84
2024-02-20T01:09:10.841Z,99407.31
2024-02-20T01:12:12.766Z,99407.28
2024-02-20T01:15:14.389Z,99409.78
2024-02-20T01:18:17.964Z,99399.19
2024-02-20T01:21:19.553Z,99407.88
2024-02-20T01:24:21.394Z,99413.84
2024-02-20T01:27:23.046Z,99414.75
2024-02-20T01:30:29.395Z,99415.53
2024-02-20T01:33:31.003Z,99418.13
2024-02-20T01:36:32.761Z,99420.72
2024-02-20T01:39:34.452Z,99414.63
2024-02-20T01:42:36.873Z,99428.50
2024-02-20T01:45:38.441Z,99426.75
2024-02-20T01:48:42.629Z,99439.69
2024-02-20T01:51:45.703Z,99429.31
2024-02-20T01:54:47.241Z,99446.56
2024-02-20T01:57:49.856Z,99437.88
2024-02-20T02:00:53.022Z,99442.22
2024-02-20T02:03:54.622Z,99443.97
2024-02-20T02:06:56.302Z,99446.47
2024-02-20T02:09:57.804Z,99452.53
2024-02-20T02:12:59.404Z,99449.88
2024-02-20T02:16:01.114Z,99467.22
2024-02-20T02:19:02.889Z,99462.78
2024-02-20T02:22:05.228Z,99459.22
2024-02-20T02:25:08.803Z,99477.34
2024-02-20T02:28:10.615Z,99470.31
2024-02-20T02:31:12.090Z,99475.44
2024-02-20T02:34:13.800Z,99488.41
2024-02-20T02:37:15.452Z,99494.34
2024-02-20T02:40:17.204Z,99494.25
2024-02-20T02:43:18.966Z,99496.81
2024-02-20T02:46:23.629Z,99499.38
2024-02-20T02:49:28.324Z,99502.88
2024-02-20T02:52:32.319Z,99508.00
2024-02-20T02:55:34.034Z,99514.00
2024-02-20T02:58:35.616Z,99511.38
2024-02-20T03:01:37.237Z,99519.91
2024-02-20T03:04:38.880Z,99525.94
2024-02-20T03:07:40.799Z,99527.66
2024-02-20T03:10:42.851Z,99531.91
2024-02-20T03:13:44.672Z,99534.50
2024-02-20T03:16:48.840Z,99542.16
2024-02-20T03:19:50.383Z,99549.91
2024-02-20T03:22:51.969Z,99545.53
2024-02-20T03:25:54.436Z,99551.56
2024-02-20T03:28:59.173Z,99563.63
2024-02-20T03:32:00.791Z,99560.94
2024-02-20T03:35:03.954Z,99555.72
2024-02-20T03:38:06.056Z,99574.84
2024-02-20T03:41:09.888Z,99568.59
2024-02-20T03:44:11.590Z,99575.53
2024-02-20T03:47:15.741Z,99579.88
2024-02-20T03:50:23.482Z,99590.19
2024-02-20T03:53:27.580Z,99588.50
2024-02-20T03:56:31.672Z,99597.00
2024-02-20T03:59:33.183Z,99609.19
2024-02-20T04:02:34.755Z,99606.47
2024-02-20T04:05:36.337Z,99606.50
2024-02-20T04:08:38.382Z,99606.41
2024-02-20T04:11:45.165Z,99612.50
2024-02-20T04:14:49.337Z,99626.34
2024-02-20T04:17:54.655Z,99633.16
2024-02-20T04:20:58.358Z,99633.06
2024-02-20T04:24:01.083Z,99630.50
2024-02-20T04:27:03.058Z,99627.84
2024-02-20T04:30:05.285Z,99625.13
2024-02-20T04:33:08.945Z,99639.03
2024-02-20T04:36:16.000Z,99640.69
2024-02-20T04:39:20.762Z,99639.91
2024-02-20T04:42:29.587Z,99640.66
2024-02-20T04:45:33.899Z,99656.13
2024-02-20T04:48:35.732Z,99654.38
2024-02-20T04:51:38.049Z,99653.50
2024-02-20T04:54:44.375Z,99651.00
2024-02-20T04:57:46.100Z,99652.63
2024-02-20T05:00:52.183Z,99662.13
2024-02-20T05:04:01.724Z,99652.41
2024-02-20T05:07:13.771Z,99652.47
2024-02-20T05:10:15.804Z,99656.06
2024-02-20T05:13:17.423Z,99652.41
2024-02-20T05:16:19.210Z,99655.75
2024-02-20T05:19:23.865Z,99657.41
2024-02-20T05:22:32.331Z,99653.16
2024-02-20T05:25:35.032Z,99657.44
2024-02-20T05:28:40.398Z,99659.25
2024-02-20T05:31:42.158Z,99656.56
2024-02-20T05:34:51.257Z,99660.72
2024-02-20T05:37:57.180Z,99665.91
2024-02-20T05:41:04.545Z,99661.56
2024-02-20T05:44:19.983Z,99673.66
2024-02-20T05:47:24.277Z,99669.47
2024-02-20T05:50:31.212Z,99672.81
2024-02-20T05:53:36.108Z,99672.66
2024-02-20T05:56:43.859Z,99674.53
2024-02-20T05:59:45.704Z,99676.88
2024-02-20T06:02:53.735Z,99673.50
2024-02-20T06:05:55.507Z,99680.22
2024-02-20T06:08:59.566Z,99675.03
2024-02-20T06:12:01.318Z,99690.69
2024-02-20T06:15:05.568Z,99694.97
2024-02-20T06:18:08.805Z,99688.00
2024-02-20T06:21:49.832Z,99690.56
2024-02-20T06:25:53.030Z,99687.13
2024-02-20T06:33:55.438Z,99685.25
2024-02-20T06:41:29.396Z,99686.97
2024-02-20T06:56:57.578Z,99699.28
2024-02-20T07:44:30.405Z,99726.88
2024-02-20T07:48:12.216Z,99736.44
2024-02-20T07:51:19.418Z,99731.13
2024-02-20T07:54:21.252Z,99737.97
2024-02-20T07:57:41.456Z,99741.78
2024-02-20T08:02:24.074Z,99749.69
2024-02-20T08:04:58.522Z,99754.09
2024-02-20T08:08:10.072Z,99759.59
2024-02-20T08:11:13.720Z,99757.06
2024-02-20T08:14:15.490Z,99759.69
2024-02-20T08:19:24.890Z,99758.47
2024-02-20T08:20:44.566Z,99767.03
2024-02-20T08:23:48.183Z,99767.00
2024-02-20T08:26:50.926Z,99766.44
2024-02-20T08:29:52.614Z,99762.81
2024-02-20T08:32:56.955Z,99766.25
2024-02-20T08:35:58.450Z,99772.88
2024-02-20T08:39:00.358Z,99774.97
